createdAt,value
2022-11-20T00:00:25.638Z,6.27
2022-11-20T00:02:52.928Z,2.67
2022-11-20T00:05:20.564Z,3.03
2022-11-20T00:07:47.846Z,4.30
2022-11-20T00:10:15.144Z,3.87
2022-11-20T00:12:42.436Z,3.03
2022-11-20T00:15:11.325Z,4.33
2022-11-20T00:17:38.620Z,3.50
2022-11-20T00:20:06.073Z,3.20
2022-11-20T00:22:33.457Z,3.30
2022-11-20T00:25:00.789Z,4.47
2022-11-20T00:27:28.606Z,3.90
2022-11-20T00:29:55.965Z,3.43
2022-11-20T00:32:23.361Z,4.03
2022-11-20T00:34:50.976Z,3.60
2022-11-20T00:37:18.238Z,5.23
2022-11-20T00:39:45.633Z,4.30
2022-11-20T00:42:12.964Z,4.47
2022-11-20T00:44:40.350Z,4.60
2022-11-20T00:47:07.769Z,4.60
2022-11-20T00:49:35.048Z,4.90
2022-11-20T00:52:02.591Z,10.70
2022-11-20T00:54:30.273Z,7.47
2022-11-20T00:56:57.721Z,8.00
2022-11-20T00:59:25.028Z,7.87
2022-11-20T01:01:52.271Z,6.73
2022-11-20T01:04:19.733Z,6.03
2022-11-20T01:06:47.052Z,5.27
2022-11-20T01:09:15.274Z,5.50
2022-11-20T01:11:46.470Z,5.53
2022-11-20T01:14:15.294Z,6.07
2022-11-20T01:16:44.012Z,5.80
2022-11-20T01:19:17.330Z,4.50
2022-11-20T01:21:45.956Z,5.27
2022-11-20T01:24:14.421Z,5.00
2022-11-20T01:26:45.352Z,5.83
2022-11-20T01:29:15.200Z,4.73
2022-11-20T01:31:42.472Z,4.60
2022-11-20T01:34:12.495Z,5.53
2022-11-20T01:36:40.223Z,5.23
2022-11-20T01:39:09.390Z,6.40
2022-11-20T01:41:55.431Z,4.63
2022-11-20T01:44:24.644Z,5.30
2022-11-20T01:46:51.896Z,4.40
2022-11-20T01:49:26.727Z,4.20
2022-11-20T01:51:58.898Z,3.60
2022-11-20T01:54:28.716Z,4.33
2022-11-20T01:56:57.475Z,3.97
2022-11-20T01:59:26.451Z,4.10
2022-11-20T02:01:54.105Z,4.20
2022-11-20T02:04:22.029Z,4.10
2022-11-20T02:06:51.165Z,4.47
2022-11-20T02:09:18.989Z,4.57
2022-11-20T02:11:46.581Z,4.87
2022-11-20T02:14:13.890Z,4.33
2022-11-20T02:16:44.878Z,3.80
2022-11-20T02:19:19.256Z,4.17
2022-11-20T02:21:49.890Z,4.33
2022-11-20T02:24:19.094Z,4.27
2022-11-20T02:26:49.150Z,4.70
2022-11-20T02:29:18.163Z,4.63
2022-11-20T02:31:45.840Z,3.80
2022-11-20T02:34:13.152Z,4.90
2022-11-20T02:36:41.836Z,5.80
2022-11-20T02:39:09.570Z,3.60
2022-11-20T02:41:37.851Z,4.87
2022-11-20T02:44:05.880Z,5.57
2022-11-20T02:46:33.824Z,4.27
2022-11-20T02:49:02.101Z,3.90
2022-11-20T02:51:29.507Z,3.70
2022-11-20T02:53:56.981Z,3.67
2022-11-20T02:56:24.292Z,4.90
2022-11-20T02:58:51.802Z,4.43
2022-11-20T03:01:19.425Z,3.10
2022-11-20T03:03:46.757Z,2.97
2022-11-20T03:06:14.036Z,3.07
2022-11-20T03:08:41.274Z,2.57
2022-11-20T03:11:09.149Z,3.67
2022-11-20T03:13:36.772Z,3.27
2022-11-20T03:16:08.916Z,3.70
2022-11-20T03:18:36.179Z,3.47
2022-11-20T03:21:03.566Z,4.63
2022-11-20T03:23:32.195Z,4.77
2022-11-20T03:26:09.977Z,3.63
2022-11-20T03:28:37.515Z,2.87
2022-11-20T03:31:09.025Z,3.97
2022-11-20T03:33:37.578Z,3.13
2022-11-20T03:36:06.658Z,2.93
2022-11-20T03:38:33.986Z,2.93
2022-11-20T03:41:09.526Z,2.80
2022-11-20T03:43:36.780Z,3.20
2022-11-20T03:46:04.394Z,2.53
2022-11-20T03:48:31.856Z,2.87
2022-11-20T03:51:09.596Z,2.57
2022-11-20T03:53:36.973Z,2.53
2022-11-20T03:56:04.709Z,2.97
2022-11-20T03:58:32.209Z,2.40
2022-11-20T04:00:59.592Z,2.93
2022-11-20T04:03:27.554Z,2.87
2022-11-20T04:05:54.779Z,2.60
2022-11-20T04:08:22.120Z,3.37
2022-11-20T04:10:49.405Z,2.83
2022-11-20T04:13:17.082Z,2.83
2022-11-20T04:15:44.626Z,4.03
2022-11-20T04:18:12.099Z,2.80
2022-11-20T04:20:39.403Z,3.07
2022-11-20T04:23:06.777Z,4.40
2022-11-20T04:25:34.047Z,3.03
2022-11-20T04:28:01.384Z,3.10
2022-11-20T04:30:28.658Z,3.17
2022-11-20T04:32:55.916Z,3.00
2022-11-20T04:35:23.221Z,3.20
2022-11-20T04:37:53.532Z,2.80
2022-11-20T04:40:20.853Z,2.93
2022-11-20T04:42:48.355Z,3.00
2022-11-20T04:45:15.676Z,2.83
2022-11-20T04:47:42.914Z,3.37
2022-11-20T04:50:10.632Z,3.10
2022-11-20T04:52:38.196Z,3.37
2022-11-20T04:55:06.169Z,2.80
2022-11-20T04:57:33.448Z,3.17
2022-11-20T05:00:00.794Z,3.70
2022-11-20T05:02:29.179Z,3.63
2022-11-20T05:04:56.424Z,3.73
2022-11-20T05:07:23.751Z,3.13
2022-11-20T05:09:51.342Z,4.00
2022-11-20T05:12:18.599Z,4.27
2022-11-20T05:14:46.237Z,3.33
2022-11-20T05:17:14.107Z,3.37
2022-11-20T05:19:41.386Z,3.23
2022-11-20T05:22:08.649Z,5.40
2022-11-20T05:24:35.997Z,3.00
2022-11-20T05:27:03.321Z,3.13
2022-11-20T05:29:30.909Z,3.50
2022-11-20T05:31:58.139Z,3.20
2022-11-20T05:34:25.411Z,3.40
2022-11-20T05:36:52.709Z,3.43
2022-11-20T05:39:20.374Z,3.20
2022-11-20T05:42:07.692Z,3.50
2022-11-20T05:44:35.220Z,3.27
2022-11-20T05:47:02.502Z,3.83
2022-11-20T05:49:29.812Z,3.33
2022-11-20T05:51:57.164Z,3.57
2022-11-20T05:54:24.614Z,3.17
2022-11-20T05:56:51.868Z,4.33
2022-11-20T05:59:19.288Z,3.67
2022-11-20T06:01:46.648Z,4.67
2022-11-20T06:04:14.096Z,4.20
2022-11-20T06:06:41.861Z,6.40
2022-11-20T06:09:09.273Z,5.00
2022-11-20T06:11:36.715Z,6.53
2022-11-20T06:14:04.294Z,4.97
2022-11-20T06:16:31.576Z,4.60
2022-11-20T06:18:58.839Z,3.97
2022-11-20T06:21:26.533Z,4.17
2022-11-20T06:23:55.088Z,4.57
2022-11-20T06:26:26.753Z,3.87
2022-11-20T06:28:54.587Z,3.67
2022-11-20T06:31:23.310Z,4.23
2022-11-20T06:33:50.576Z,5.37
2022-11-20T06:36:22.185Z,5.23
2022-11-20T06:38:49.641Z,6.57
2022-11-20T06:41:17.909Z,4.90
2022-11-20T06:43:45.613Z,4.93
2022-11-20T06:46:13.940Z,6.20
2022-11-20T06:48:41.776Z,5.57
2022-11-20T06:51:09.546Z,6.27
2022-11-20T06:53:37.234Z,5.57
2022-11-20T06:56:04.664Z,6.57
2022-11-20T06:58:32.780Z,6.63
2022-11-20T07:01:04.775Z,6.07
2022-11-20T07:03:32.102Z,6.43
2022-11-20T07:06:00.172Z,5.83
2022-11-20T07:08:27.413Z,6.73
2022-11-20T07:10:54.740Z,7.53
2022-11-20T07:13:22.119Z,5.93
2022-11-20T07:15:49.589Z,5.77
2022-11-20T07:18:16.855Z,6.40
2022-11-20T07:20:44.072Z,4.80
2022-11-20T07:23:11.370Z,5.40
2022-11-20T07:25:38.722Z,5.17
2022-11-20T07:28:06.276Z,5.00
2022-11-20T07:30:33.627Z,4.70
2022-11-20T07:33:00.960Z,6.93
2022-11-20T07:35:28.240Z,7.90
2022-11-20T07:37:55.917Z,5.20
2022-11-20T07:40:23.217Z,4.97
2022-11-20T07:42:54.522Z,4.63
2022-11-20T07:45:22.941Z,5.53
2022-11-20T07:47:50.280Z,4.33
2022-11-20T07:50:17.944Z,4.80
2022-11-20T07:52:45.232Z,6.07
2022-11-20T07:55:12.827Z,6.73
2022-11-20T07:57:40.098Z,4.57
2022-11-20T08:00:11.398Z,5.03
2022-11-20T08:02:42.541Z,14.43
2022-11-20T08:05:10.656Z,9.67
2022-11-20T08:07:41.980Z,6.73
2022-11-20T08:10:10.247Z,4.20
2022-11-20T08:12:56.798Z,4.10
2022-11-20T08:15:24.097Z,3.63
2022-11-20T08:18:08.600Z,3.00
2022-11-20T08:20:38.762Z,3.40
2022-11-20T08:23:07.441Z,3.60
2022-11-20T08:25:35.600Z,3.27
2022-11-20T08:28:11.538Z,4.20
2022-11-20T08:30:47.072Z,4.47
2022-11-20T08:33:14.633Z,4.43
2022-11-20T08:35:42.812Z,8.37
2022-11-20T08:38:10.617Z,4.70
2022-11-20T08:40:41.068Z,5.07
2022-11-20T08:43:08.471Z,4.23
2022-11-20T08:45:35.862Z,4.27
2022-11-20T08:48:04.114Z,4.47
2022-11-20T08:50:33.481Z,6.10
2022-11-20T08:53:08.129Z,4.27
2022-11-20T08:55:36.837Z,4.20
2022-11-20T08:58:08.400Z,4.57
2022-11-20T09:00:35.997Z,4.47
2022-11-20T09:03:03.446Z,4.67
2022-11-20T09:05:30.996Z,5.00
2022-11-20T09:07:58.840Z,4.00
2022-11-20T09:10:26.267Z,5.83
2022-11-20T09:12:54.183Z,5.43
2022-11-20T09:15:21.795Z,4.10
2022-11-20T09:17:53.334Z,4.37
2022-11-20T09:20:21.014Z,5.57
2022-11-20T09:22:48.419Z,6.00
2022-11-20T09:25:15.933Z,4.03
2022-11-20T09:27:45.082Z,4.40
2022-11-20T09:30:12.698Z,6.47
2022-11-20T09:32:44.050Z,9.90
2022-11-20T09:35:12.052Z,5.37
2022-11-20T09:37:39.476Z,5.73
2022-11-20T09:40:07.114Z,4.33
2022-11-20T09:42:47.443Z,4.50
2022-11-20T09:45:25.340Z,3.77
2022-11-20T09:47:56.007Z,4.60
2022-11-20T09:50:33.922Z,4.63
2022-11-20T09:53:10.502Z,3.27
2022-11-20T09:55:37.909Z,2.77
2022-11-20T09:58:08.509Z,4.30
2022-11-20T10:00:37.699Z,4.30
2022-11-20T10:03:15.064Z,3.63
2022-11-20T10:05:50.367Z,3.17
2022-11-20T10:08:23.585Z,3.20
2022-11-20T10:11:03.963Z,4.03
2022-11-20T10:13:31.286Z,3.07
2022-11-20T10:16:18.744Z,3.30
2022-11-20T10:19:04.947Z,2.77
2022-11-20T10:21:51.059Z,2.67
2022-11-20T10:24:28.533Z,2.80
2022-11-20T10:27:22.184Z,5.73
2022-11-20T10:29:53.319Z,3.30
2022-11-20T10:32:22.316Z,4.73
2022-11-20T10:34:49.633Z,2.80
2022-11-20T10:37:19.780Z,2.43
2022-11-20T10:40:00.384Z,1.87
2022-11-20T10:42:33.448Z,2.70
2022-11-20T10:45:06.679Z,1.40
2022-11-20T10:47:34.444Z,2.10
2022-11-20T10:50:15.318Z,1.27
2022-11-20T10:52:54.186Z,2.10
2022-11-20T10:55:57.150Z,3.20
2022-11-20T10:58:24.694Z,2.00
2022-11-20T11:00:52.715Z,2.20
2022-11-20T11:03:28.430Z,1.00
2022-11-20T11:06:06.094Z,1.10
2022-11-20T11:08:36.897Z,1.20
2022-11-20T11:11:25.397Z,1.40
2022-11-20T11:13:52.852Z,1.20
2022-11-20T11:16:24.957Z,1.40
2022-11-20T11:18:52.479Z,1.37
2022-11-20T11:21:27.028Z,1.90
2022-11-20T11:24:26.786Z,1.87
2022-11-20T11:27:10.118Z,1.63
2022-11-20T11:29:39.900Z,1.20
2022-11-20T11:32:14.666Z,1.23
2022-11-20T11:34:42.243Z,1.30
2022-11-20T11:37:15.365Z,3.27
2022-11-20T11:39:44.014Z,2.40
2022-11-20T11:42:14.848Z,1.47
2022-11-20T11:45:04.719Z,1.10
2022-11-20T11:47:40.381Z,1.20
2022-11-20T11:50:17.156Z,1.10
2022-11-20T11:52:50.459Z,1.67
2022-11-20T11:55:26.891Z,10.43
2022-11-20T11:58:11.971Z,5.40
2022-11-20T12:00:41.712Z,6.53
2022-11-20T12:03:19.682Z,3.03
2022-11-20T12:05:49.400Z,5.17
2022-11-20T12:08:34.242Z,10.13
2022-11-20T12:11:21.773Z,2.63
2022-11-20T12:13:51.108Z,4.43
2022-11-20T12:16:19.961Z,2.97
2022-11-20T12:18:48.535Z,3.50
2022-11-20T12:21:25.599Z,1.87
2022-11-20T12:24:12.484Z,1.50
2022-11-20T12:26:52.276Z,2.47
2022-11-20T12:29:23.674Z,1.83
2022-11-20T12:31:51.413Z,1.57
2022-11-20T12:34:25.130Z,1.33
2022-11-20T12:36:55.464Z,1.63
2022-11-20T12:39:25.827Z,1.17
2022-11-20T12:42:25.713Z,1.57
2022-11-20T12:45:16.610Z,1.93
2022-11-20T12:48:03.663Z,1.53
2022-11-20T12:50:42.862Z,2.33
2022-11-20T12:53:27.409Z,1.53
2022-11-20T12:56:02.617Z,1.60
2022-11-20T12:58:35.948Z,1.30
2022-11-20T13:01:34.323Z,1.30
2022-11-20T13:04:06.477Z,1.20
2022-11-20T13:06:36.990Z,1.00
2022-11-20T13:09:04.966Z,1.57
2022-11-20T13:11:45.812Z,1.60
2022-11-20T13:14:16.257Z,3.47
2022-11-20T13:16:51.824Z,1.83
2022-11-20T13:19:19.565Z,1.83
2022-11-20T13:21:48.069Z,2.00
2022-11-20T13:24:24.612Z,1.30
2022-11-20T13:27:10.908Z,1.60
2022-11-20T13:29:39.360Z,2.30
2022-11-20T13:32:17.462Z,1.20
2022-11-20T13:34:55.409Z,1.33
2022-11-20T13:37:31.378Z,1.27
2022-11-20T13:40:08.085Z,1.50
2022-11-20T13:42:39.654Z,2.63
2022-11-20T13:45:27.525Z,1.10
2022-11-20T13:47:55.577Z,1.33
2022-11-20T13:50:28.678Z,1.37
2022-11-20T13:53:24.500Z,1.00
2022-11-20T13:56:03.898Z,1.10
2022-11-20T13:58:34.322Z,1.10
2022-11-20T14:01:37.239Z,1.00
2022-11-20T14:04:12.327Z,1.33
2022-11-20T14:06:44.215Z,0.97
2022-11-20T14:09:26.051Z,1.07
2022-11-20T14:11:53.335Z,1.90
2022-11-20T14:14:22.482Z,1.10
2022-11-20T14:16:51.633Z,1.10
2022-11-20T14:19:22.027Z,1.23
2022-11-20T14:21:49.364Z,1.10
2022-11-20T14:24:21.276Z,1.00
2022-11-20T14:26:49.277Z,2.00
2022-11-20T14:29:17.939Z,2.43
2022-11-20T14:31:49.964Z,1.20
2022-11-20T14:34:24.136Z,5.80
2022-11-20T14:36:57.636Z,2.30
2022-11-20T14:39:28.626Z,1.90
2022-11-20T14:41:55.967Z,2.50
2022-11-20T14:44:26.510Z,1.60
2022-11-20T14:46:54.531Z,1.73
2022-11-20T14:49:21.941Z,2.30
2022-11-20T14:51:59.985Z,1.47
2022-11-20T14:54:28.080Z,1.10
2022-11-20T14:56:59.309Z,2.23
2022-11-20T14:59:27.555Z,1.60
2022-11-20T15:02:03.393Z,2.07
2022-11-20T15:04:30.781Z,4.13
2022-11-20T15:06:59.157Z,2.87
2022-11-20T15:09:26.724Z,3.73
2022-11-20T15:11:56.730Z,1.50
2022-11-20T15:14:24.715Z,2.00
2022-11-20T15:16:53.078Z,2.20
2022-11-20T15:19:25.322Z,9.00
2022-11-20T15:21:52.982Z,5.80
2022-11-20T15:24:20.500Z,5.43
2022-11-20T15:26:48.897Z,7.33
2022-11-20T15:29:20.317Z,2.30
2022-11-20T15:31:47.648Z,4.40
2022-11-20T15:34:17.921Z,3.87
2022-11-20T15:36:45.466Z,1.40
2022-11-20T15:39:12.893Z,2.23
2022-11-20T15:41:40.257Z,2.37
2022-11-20T15:44:07.623Z,1.90
2022-11-20T15:46:41.182Z,1.70
2022-11-20T15:49:12.648Z,1.80
2022-11-20T15:51:42.343Z,1.93
2022-11-20T15:54:13.545Z,2.47
2022-11-20T15:56:40.957Z,1.57
2022-11-20T15:59:08.291Z,1.50
2022-11-20T16:01:35.904Z,3.67
2022-11-20T16:04:03.670Z,3.10
2022-11-20T16:06:31.020Z,1.73
2022-11-20T16:08:58.249Z,3.10
2022-11-20T16:11:25.604Z,4.63
2022-11-20T16:14:11.382Z,2.90
2022-11-20T16:16:41.641Z,3.80
2022-11-20T16:19:12.091Z,4.70
2022-11-20T16:21:40.695Z,7.00
2022-11-20T16:24:08.712Z,4.83
2022-11-20T16:26:35.976Z,7.37
2022-11-20T16:29:04.329Z,4.67
2022-11-20T16:31:31.600Z,3.87
2022-11-20T16:34:00.095Z,2.30
2022-11-20T16:36:28.569Z,11.30
2022-11-20T16:38:56.580Z,6.43
2022-11-20T16:41:24.459Z,3.83
2022-11-20T16:43:52.834Z,8.63
2022-11-20T16:46:23.592Z,7.83
2022-11-20T16:48:55.262Z,5.57
2022-11-20T16:51:22.651Z,8.30
2022-11-20T16:53:50.957Z,5.03
2022-11-20T16:56:22.374Z,4.10
2022-11-20T16:58:50.475Z,5.10
2022-11-20T17:01:20.945Z,6.83
2022-11-20T17:03:54.600Z,5.20
2022-11-20T17:06:22.708Z,3.63
2022-11-20T17:08:50.030Z,3.37
2022-11-20T17:11:18.396Z,3.00
2022-11-20T17:13:46.175Z,3.47
2022-11-20T17:16:18.729Z,2.87
2022-11-20T17:18:46.452Z,3.47
2022-11-20T17:21:13.951Z,3.07
2022-11-20T17:23:43.679Z,2.70
2022-11-20T17:26:12.380Z,3.10
2022-11-20T17:28:39.704Z,2.37
2022-11-20T17:31:11.234Z,2.80
2022-11-20T17:33:39.268Z,2.77
2022-11-20T17:36:07.978Z,2.40
2022-11-20T17:38:35.691Z,3.60
2022-11-20T17:41:25.525Z,6.30
2022-11-20T17:43:56.889Z,3.13
2022-11-20T17:46:25.631Z,2.23
2022-11-20T17:48:53.245Z,1.90
2022-11-20T17:51:24.952Z,2.60
2022-11-20T17:53:53.460Z,1.67
2022-11-20T17:56:39.923Z,1.87
2022-11-20T17:59:08.632Z,1.63
2022-11-20T18:01:38.181Z,1.87
2022-11-20T18:04:05.657Z,2.00
2022-11-20T18:06:33.231Z,2.03
2022-11-20T18:09:01.180Z,1.80
2022-11-20T18:11:30.219Z,2.10
2022-11-20T18:14:18.509Z,1.87
2022-11-20T18:16:47.327Z,2.07
2022-11-20T18:19:19.651Z,1.80
2022-11-20T18:21:46.946Z,2.40
2022-11-20T18:24:14.842Z,1.87
2022-11-20T18:26:44.458Z,4.10
2022-11-20T18:29:12.862Z,2.73
2022-11-20T18:31:40.217Z,8.10
2022-11-20T18:34:11.793Z,11.17
2022-11-20T18:36:39.101Z,12.87
2022-11-20T18:39:06.644Z,21.50
2022-11-20T18:42:06.325Z,13.00
2022-11-20T18:44:53.687Z,2.47
2022-11-20T18:47:25.112Z,2.53
2022-11-20T18:49:53.239Z,1.80
2022-11-20T18:52:22.136Z,3.40
2022-11-20T18:54:49.532Z,5.17
2022-11-20T18:57:17.876Z,6.47
2022-11-20T18:59:45.253Z,7.73
2022-11-20T19:02:13.795Z,10.80
2022-11-20T19:04:41.443Z,8.87
2022-11-20T19:07:11.910Z,5.77
2022-11-20T19:09:40.256Z,3.37
2022-11-20T19:12:08.074Z,7.13
2022-11-20T19:14:35.521Z,3.93
2022-11-20T19:17:03.450Z,2.20
2022-11-20T19:19:30.849Z,2.67
2022-11-20T19:21:58.105Z,1.80
2022-11-20T19:24:27.516Z,2.90
2022-11-20T19:26:56.631Z,4.07
2022-11-20T19:29:26.992Z,2.50
2022-11-20T19:31:54.392Z,2.20
2022-11-20T19:34:22.593Z,1.97
2022-11-20T19:36:49.849Z,2.30
2022-11-20T19:39:17.277Z,1.60
2022-11-20T19:41:44.743Z,2.50
2022-11-20T19:44:15.061Z,1.80
2022-11-20T19:46:42.631Z,2.40
2022-11-20T19:49:11.144Z,2.97
2022-11-20T19:51:39.409Z,1.90
2022-11-20T19:54:06.821Z,3.17
2022-11-20T19:56:34.748Z,1.90
2022-11-20T19:59:02.414Z,2.53
2022-11-20T20:01:30.998Z,2.07
2022-11-20T20:04:02.811Z,2.13
2022-11-20T20:06:30.292Z,2.30
2022-11-20T20:09:02.071Z,2.20
2022-11-20T20:11:31.000Z,1.87
2022-11-20T20:13:59.289Z,1.90
2022-11-20T20:16:29.057Z,2.20
2022-11-20T20:18:57.723Z,2.10
2022-11-20T20:21:25.199Z,1.87
2022-11-20T20:23:55.861Z,2.23
2022-11-20T20:26:23.992Z,2.97
2022-11-20T20:28:52.081Z,1.83
2022-11-20T20:31:20.868Z,2.17
2022-11-20T20:33:48.628Z,2.27
2022-11-20T20:36:17.319Z,3.60
2022-11-20T20:38:46.570Z,2.03
2022-11-20T20:41:14.368Z,2.20
2022-11-20T20:44:00.685Z,2.50
2022-11-20T20:46:27.938Z,2.00
2022-11-20T20:48:55.185Z,2.23
2022-11-20T20:51:22.737Z,1.90
2022-11-20T20:53:50.892Z,2.10
2022-11-20T20:56:19.115Z,2.27
2022-11-20T20:58:46.484Z,2.67
2022-11-20T21:01:17.931Z,1.97
2022-11-20T21:03:45.547Z,1.70
2022-11-20T21:06:13.584Z,1.80
2022-11-20T21:08:42.801Z,1.67
2022-11-20T21:11:13.504Z,1.40
2022-11-20T21:13:42.831Z,1.37
2022-11-20T21:16:10.267Z,1.57
2022-11-20T21:18:38.525Z,1.37
2022-11-20T21:21:25.382Z,1.30
2022-11-20T21:23:55.886Z,1.00
2022-11-20T21:26:23.234Z,1.10
2022-11-20T21:28:50.663Z,1.10
2022-11-20T21:31:21.994Z,1.17
2022-11-20T21:33:50.282Z,1.03
2022-11-20T21:36:21.782Z,1.00
2022-11-20T21:38:49.532Z,0.90
2022-11-20T21:41:16.848Z,0.90
2022-11-20T21:43:44.525Z,0.90
2022-11-20T21:46:13.214Z,0.80
2022-11-20T21:48:41.401Z,1.93
2022-11-20T21:51:10.101Z,1.00
2022-11-20T21:53:37.650Z,0.90
2022-11-20T21:56:05.827Z,1.10
2022-11-20T21:58:33.417Z,0.80
2022-11-20T22:01:00.751Z,1.00
2022-11-20T22:03:28.218Z,1.27
2022-11-20T22:05:56.605Z,1.10
2022-11-20T22:08:24.596Z,1.40
2022-11-20T22:10:58.923Z,1.30
2022-11-20T22:13:46.131Z,2.20
2022-11-20T22:16:13.890Z,1.10
2022-11-20T22:18:48.645Z,1.27
2022-11-20T22:21:16.820Z,1.20
2022-11-20T22:23:44.160Z,1.10
2022-11-20T22:26:12.551Z,1.10
2022-11-20T22:28:40.493Z,1.13
2022-11-20T22:31:09.169Z,1.50
2022-11-20T22:33:37.779Z,1.37
2022-11-20T22:36:12.670Z,1.50
2022-11-20T22:38:40.829Z,2.10
2022-11-20T22:41:12.659Z,1.03
2022-11-20T22:43:40.261Z,1.40
2022-11-20T22:46:11.769Z,0.90
2022-11-20T22:48:40.340Z,1.10
2022-11-20T22:51:09.048Z,1.20
2022-11-20T22:53:36.411Z,1.70
2022-11-20T22:56:04.418Z,1.53
2022-11-20T22:58:31.944Z,2.83
2022-11-20T23:01:08.717Z,2.23
2022-11-20T23:03:36.122Z,1.50
2022-11-20T23:06:03.775Z,0.97
2022-11-20T23:08:31.616Z,1.13
2022-11-20T23:11:02.892Z,1.33
2022-11-20T23:13:30.493Z,2.80
2022-11-20T23:16:05.250Z,1.50
2022-11-20T23:18:32.937Z,1.87
2022-11-20T23:21:06.715Z,1.60
2022-11-20T23:23:34.112Z,1.20
2022-11-20T23:26:05.115Z,4.17
2022-11-20T23:28:32.900Z,3.00
2022-11-20T23:31:00.893Z,1.63
2022-11-20T23:33:28.276Z,2.60
2022-11-20T23:35:55.663Z,3.60
2022-11-20T23:38:23.109Z,2.47
2022-11-20T23:40:51.128Z,2.93
2022-11-20T23:43:18.868Z,1.93
2022-11-20T23:45:48.123Z,2.50
2022-11-20T23:48:15.788Z,1.73
2022-11-20T23:50:43.676Z,1.63
2022-11-20T23:53:11.585Z,2.23
2022-11-20T23:55:39.123Z,2.47
2022-11-20T23:58:06.393Z,2.17
